Time;durP1;ratioP1;P1;durP2;ratioP2;P2;SDS_P1;SDS_P2;PMS_P1;PMS_P2;Temp;Humidity;BMP_temperature;BMP_pressure;BME280_temperature;BME280_humidity;BME280_pressure;Samples;Min_cycle;Max_cycle;Signal;HPM_P1;HPM_P2
2021/07/13 00:02:04;;;;;;;7.60;6.60;;;19.80;95.80;;;;;;5071774;28;20105;-71
2021/07/13 00:04:29;;;;;;;6.72;6.10;;;19.80;95.80;;;;;;5072401;28;20032;-71
2021/07/13 00:06:55;;;;;;;8.27;5.85;;;19.80;95.90;;;;;;5072542;28;20024;-71
2021/07/13 00:09:20;;;;;;;6.47;5.78;;;19.70;96.00;;;;;;5073485;28;20458;-71
2021/07/13 00:11:48;;;;;;;8.88;6.35;;;19.70;96.10;;;;;;5074508;28;20113;-71
2021/07/13 00:14:14;;;;;;;8.85;6.88;;;19.70;96.20;;;;;;5072405;28;20020;-71
2021/07/13 00:16:40;;;;;;;6.90;6.20;;;19.70;96.20;;;;;;5075840;28;20027;-71
2021/07/13 00:19:05;;;;;;;8.13;7.05;;;19.70;96.20;;;;;;5071692;28;20095;-71
2021/07/13 00:21:31;;;;;;;7.20;6.50;;;19.70;96.30;;;;;;5076963;28;20037;-71
2021/07/13 00:23:57;;;;;;;7.95;7.15;;;19.70;96.30;;;;;;5077948;28;20020;-71
2021/07/13 00:26:24;;;;;;;9.05;8.15;;;19.80;96.40;;;;;;5079513;28;20363;-71
2021/07/13 00:28:50;;;;;;;8.18;7.38;;;19.70;96.30;;;;;;5077287;28;20025;-71
2021/07/13 00:31:15;;;;;;;8.95;7.57;;;19.80;96.40;;;;;;5075721;28;20020;-71
2021/07/13 00:33:41;;;;;;;8.82;7.97;;;19.70;96.40;;;;;;5074484;28;20036;-71
2021/07/13 00:36:07;;;;;;;11.02;7.70;;;19.70;96.50;;;;;;5076656;28;20028;-70
2021/07/13 00:38:33;;;;;;;9.38;7.93;;;19.60;96.60;;;;;;5076187;28;20073;-71
2021/07/13 00:40:58;;;;;;;11.30;8.93;;;19.60;96.70;;;;;;5076918;28;20501;-71
2021/07/13 00:43:24;;;;;;;10.20;9.20;;;19.50;96.90;;;;;;5075131;28;20024;-71
2021/07/13 00:45:49;;;;;;;13.32;9.70;;;19.40;97.20;;;;;;5075224;28;20032;-71
2021/07/13 00:48:17;;;;;;;9.32;8.40;;;19.30;97.40;;;;;;5077156;28;20478;-71
2021/07/13 00:50:44;;;;;;;9.48;8.18;;;19.30;97.60;;;;;;5077519;28;20385;-71
2021/07/13 00:53:09;;;;;;;9.88;7.50;;;19.30;97.70;;;;;;5078278;28;20013;-71
2021/07/13 00:55:35;;;;;;;8.27;7.40;;;19.30;97.70;;;;;;5075822;28;20489;-71
2021/07/13 00:58:04;;;;;;;7.35;6.55;;;19.40;97.70;;;;;;5075313;28;20023;-71
2021/07/13 01:00:30;;;;;;;8.77;7.07;;;19.40;97.70;;;;;;5077927;28;20474;-71
2021/07/13 01:03:01;;;;;;;8.35;7.47;;;19.40;97.70;;;;;;5073434;28;20031;-71
2021/07/13 01:05:30;;;;;;;7.45;6.72;;;19.40;97.70;;;;;;5074256;28;20052;-71
2021/07/13 01:08:00;;;;;;;7.00;6.22;;;19.40;97.70;;;;;;5077197;28;20017;-71
2021/07/13 01:10:45;;;;;;;7.80;6.88;;;19.40;97.60;;;;;;5087478;28;20112;-71
2021/07/13 01:13:26;;;;;;;9.48;8.57;;;19.50;97.60;;;;;;5077067;28;20423;-71
2021/07/13 01:16:16;;;;;;;11.48;10.27;;;19.50;97.60;;;;;;5075127;28;20024;-71
2021/07/13 01:18:54;;;;;;;13.18;11.88;;;19.50;97.60;;;;;;5073414;28;20032;-71
2021/07/13 01:21:38;;;;;;;14.23;12.82;;;19.50;97.60;;;;;;5074236;28;20044;-71
2021/07/13 01:24:36;;;;;;;15.38;13.90;;;19.50;97.60;;;;;;5076223;28;20150;-71
2021/07/13 01:27:17;;;;;;;13.38;12.18;;;19.50;97.70;;;;;;5076495;28;20028;-71
2021/07/13 01:29:45;;;;;;;13.40;12.10;;;19.40;97.80;;;;;;5075494;28;20082;-71
2021/07/13 01:32:21;;;;;;;12.50;11.30;;;19.50;97.80;;;;;;5077061;28;20025;-71
2021/07/13 01:34:54;;;;;;;12.15;10.95;;;19.50;97.70;;;;;;5075945;28;20017;-71
2021/07/13 01:37:21;;;;;;;13.23;12.00;;;19.50;97.80;;;;;;5077041;28;20493;-71
2021/07/13 01:39:51;;;;;;;14.75;13.05;;;19.50;97.80;;;;;;5076466;28;20393;-71
2021/07/13 01:42:17;;;;;;;16.83;14.23;;;19.50;97.80;;;;;;5075426;28;20115;-71
2021/07/13 01:44:44;;;;;;;13.80;12.50;;;19.50;97.80;;;;;;5072862;28;20052;-71
2021/07/13 01:47:11;;;;;;;13.82;12.43;;;19.50;97.80;;;;;;5073652;28;20062;-71
2021/07/13 01:49:38;;;;;;;13.52;12.20;;;19.50;97.80;;;;;;5075891;28;20063;-71
2021/07/13 01:52:05;;;;;;;20.95;13.55;;;19.50;97.80;;;;;;5076191;28;20485;-71
2021/07/13 01:54:33;;;;;;;12.35;11.13;;;19.50;97.80;;;;;;5076790;28;20020;-71
2021/07/13 01:57:00;;;;;;;12.63;11.15;;;19.50;97.80;;;;;;5074914;28;20013;-71
2021/07/13 01:59:26;;;;;;;12.57;11.25;;;19.50;97.90;;;;;;5075113;28;20424;-71
2021/07/13 02:01:57;;;;;;;11.95;10.88;;;19.40;97.90;;;;;;5072325;28;20033;-71
2021/07/13 02:04:29;;;;;;;12.07;10.88;;;19.40;97.90;;;;;;5073416;28;20047;-71
2021/07/13 02:07:00;;;;;;;12.60;11.30;;;19.50;98.00;;;;;;5075511;28;20029;-71
2021/07/13 02:09:26;;;;;;;12.02;10.90;;;19.40;98.00;;;;;;5075939;28;20104;-71
2021/07/13 02:11:55;;;;;;;13.98;12.05;;;19.40;98.00;;;;;;5074214;28;20055;-71
2021/07/13 02:14:20;;;;;;;14.82;12.75;;;19.40;98.00;;;;;;5074412;28;20017;-71
2021/07/13 02:16:47;;;;;;;13.70;12.23;;;19.40;98.00;;;;;;5074694;28;20497;-71
2021/07/13 02:19:12;;;;;;;13.75;12.02;;;19.30;98.10;;;;;;5072022;28;20017;-71
2021/07/13 02:21:38;;;;;;;13.75;11.25;;;19.30;98.20;;;;;;5072900;28;20028;-71
2021/07/13 02:24:04;;;;;;;12.70;11.38;;;19.30;98.20;;;;;;5075257;28;20191;-71
2021/07/13 02:26:43;;;;;;;13.32;11.77;;;19.30;98.20;;;;;;5074580;28;20493;-71
2021/07/13 02:29:39;;;;;;;13.25;11.88;;;19.30;98.20;;;;;;5074160;28;20020;-71
2021/07/13 02:32:25;;;;;;;12.30;11.10;;;19.30;98.20;;;;;;5074690;28;20120;-71
2021/07/13 02:34:52;;;;;;;20.85;11.90;;;19.30;98.20;;;;;;5074609;28;20059;-71
2021/07/13 02:37:20;;;;;;;12.52;11.23;;;19.30;98.30;;;;;;5075614;28;20562;-71
2021/07/13 02:39:46;;;;;;;14.13;11.98;;;19.30;98.30;;;;;;5075013;28;20505;-71
2021/07/13 02:42:13;;;;;;;11.88;10.68;;;19.30;98.30;;;;;;5086184;28;20485;-71
2021/07/13 02:44:39;;;;;;;12.90;11.02;;;19.30;98.20;;;;;;5074617;28;20520;-71
2021/07/13 02:47:08;;;;;;;11.27;10.23;;;19.30;98.20;;;;;;5071179;28;20024;-71
2021/07/13 02:49:38;;;;;;;12.70;11.40;;;19.30;98.20;;;;;;5076076;28;20020;-71
2021/07/13 02:52:05;;;;;;;12.23;11.05;;;19.30;98.20;;;;;;5074072;28;20093;-71
2021/07/13 02:54:32;;;;;;;13.30;11.80;;;19.30;98.30;;;;;;5075817;28;20020;-71
2021/07/13 02:57:01;;;;;;;14.02;12.60;;;19.30;98.30;;;;;;5074917;28;20024;-71
2021/07/13 02:59:29;;;;;;;14.10;12.70;;;19.30;98.30;;;;;;5074105;28;20127;-71
2021/07/13 03:01:55;;;;;;;14.20;12.70;;;19.30;98.30;;;;;;5072700;28;20070;-71
2021/07/13 03:04:22;;;;;;;13.60;11.85;;;19.30;98.30;;;;;;5072580;28;20115;-71
2021/07/13 03:06:48;;;;;;;14.30;13.00;;;19.30;98.30;;;;;;5073216;28;20029;-71
2021/07/13 03:09:15;;;;;;;14.25;12.77;;;19.30;98.30;;;;;;5072906;28;20024;-71
2021/07/13 03:11:41;;;;;;;14.40;13.02;;;19.30;98.30;;;;;;5075440;28;20035;-71
2021/07/13 03:14:09;;;;;;;14.07;12.50;;;19.30;98.40;;;;;;5072309;28;20016;-71
2021/07/13 03:16:36;;;;;;;14.57;13.00;;;19.20;98.40;;;;;;5074499;28;20705;-71
2021/07/13 03:19:04;;;;;;;14.05;12.65;;;19.20;98.40;;;;;;5072386;28;20024;-71
2021/07/13 03:21:33;;;;;;;12.20;11.00;;;19.20;98.60;;;;;;5070869;28;20051;-71
2021/07/13 03:24:02;;;;;;;12.07;10.88;;;19.20;98.70;;;;;;5072989;28;20020;-71
2021/07/13 03:26:35;;;;;;;13.02;11.48;;;19.20;98.70;;;;;;5073712;28;20024;-71
2021/07/13 03:29:02;;;;;;;12.15;10.82;;;19.20;98.70;;;;;;5073506;28;20041;-71
2021/07/13 03:31:28;;;;;;;12.68;11.48;;;19.20;98.70;;;;;;5073302;28;20372;-71
2021/07/13 03:33:56;;;;;;;11.73;10.52;;;19.20;98.70;;;;;;5074657;28;20439;-71
2021/07/13 03:36:22;;;;;;;12.10;10.98;;;19.20;98.70;;;;;;5072245;28;20031;-70
2021/07/13 03:38:49;;;;;;;12.73;11.38;;;19.20;98.70;;;;;;5072613;28;20452;-71
2021/07/13 03:41:15;;;;;;;13.02;11.82;;;19.20;98.70;;;;;;5073519;28;20020;-71
2021/07/13 03:43:41;;;;;;;12.75;11.52;;;19.20;98.80;;;;;;5072709;28;20033;-71
2021/07/13 03:46:07;;;;;;;14.23;12.10;;;19.20;98.80;;;;;;5072712;28;20021;-71
2021/07/13 03:48:34;;;;;;;14.32;12.93;;;19.10;98.80;;;;;;5073885;28;20035;-71
2021/07/13 03:51:00;;;;;;;13.25;12.02;;;19.10;98.80;;;;;;5076396;28;20024;-71
2021/07/13 03:53:25;;;;;;;14.18;12.77;;;19.10;98.80;;;;;;5074926;28;20584;-71
2021/07/13 03:55:51;;;;;;;14.18;12.88;;;19.10;98.80;;;;;;5078384;28;20103;-71
2021/07/13 03:58:16;;;;;;;14.73;13.32;;;19.10;98.80;;;;;;5076972;28;20504;-71
2021/07/13 04:00:42;;;;;;;14.15;12.85;;;19.10;98.80;;;;;;5078181;28;20029;-71
2021/07/13 04:03:08;;;;;;;15.85;14.00;;;19.20;98.80;;;;;;5076466;28;20035;-71
2021/07/13 04:05:35;;;;;;;14.40;12.95;;;19.10;98.80;;;;;;5075533;28;20020;-71
2021/07/13 04:08:00;;;;;;;15.20;13.70;;;19.10;98.80;;;;;;5080242;28;20425;-71
2021/07/13 04:10:26;;;;;;;15.30;13.90;;;19.20;98.80;;;;;;5077425;28;20055;-71
2021/07/13 04:12:52;;;;;;;14.82;13.38;;;19.20;98.80;;;;;;5077822;28;20362;-71
2021/07/13 04:15:17;;;;;;;15.00;13.50;;;19.20;98.80;;;;;;5076849;28;20031;-71
2021/07/13 04:17:43;;;;;;;15.52;14.10;;;19.20;98.80;;;;;;5076086;28;20024;-71
2021/07/13 04:20:10;;;;;;;15.43;13.93;;;19.20;98.80;;;;;;5074934;28;20048;-71
2021/07/13 04:22:36;;;;;;;15.88;14.35;;;19.20;98.90;;;;;;5075053;28;20085;-71
2021/07/13 04:25:02;;;;;;;15.68;14.13;;;19.20;98.90;;;;;;5077298;28;20432;-71
2021/07/13 04:27:30;;;;;;;15.43;13.93;;;19.20;98.90;;;;;;5076926;28;20470;-71
2021/07/13 04:29:55;;;;;;;15.73;14.05;;;19.20;98.90;;;;;;5078264;28;20050;-71
2021/07/13 04:32:20;;;;;;;15.60;14.10;;;19.20;98.90;;;;;;5075748;28;20175;-71
2021/07/13 04:34:46;;;;;;;16.33;14.65;;;19.30;99.00;;;;;;5077294;28;20167;-71
2021/07/13 04:37:12;;;;;;;16.23;14.68;;;19.20;99.00;;;;;;5078153;28;20618;-71
2021/07/13 04:39:37;;;;;;;14.88;13.50;;;19.20;99.00;;;;;;5076696;28;20021;-71
2021/07/13 04:42:03;;;;;;;14.18;12.88;;;19.20;99.10;;;;;;5075938;28;20679;-71
2021/07/13 04:44:28;;;;;;;14.60;12.57;;;19.20;99.10;;;;;;5076528;28;20154;-71
2021/07/13 04:46:54;;;;;;;15.13;13.52;;;19.30;99.20;;;;;;5074966;28;20142;-71
2021/07/13 04:49:20;;;;;;;13.70;12.25;;;19.30;99.20;;;;;;5078150;28;20035;-71
2021/07/13 04:51:46;;;;;;;13.90;12.50;;;19.30;99.20;;;;;;5077865;28;20478;-71
2021/07/13 04:54:11;;;;;;;15.45;13.57;;;19.30;99.20;;;;;;5080781;28;20031;-71
2021/07/13 04:56:37;;;;;;;16.15;14.65;;;19.30;99.20;;;;;;5076579;28;20029;-71
2021/07/13 04:59:02;;;;;;;15.93;14.43;;;19.40;99.50;;;;;;5075506;28;20033;-71
2021/07/13 05:01:28;;;;;;;18.05;15.00;;;19.40;99.20;;;;;;5076212;28;20024;-71
2021/07/13 05:03:54;;;;;;;17.05;15.40;;;19.40;99.20;;;;;;5074766;28;20389;-71
2021/07/13 05:06:20;;;;;;;15.20;13.75;;;19.40;99.20;;;;;;5073774;28;20024;-71
2021/07/13 05:08:46;;;;;;;16.67;14.98;;;19.40;99.10;;;;;;5076675;28;20070;-71
2021/07/13 05:11:11;;;;;;;16.95;15.25;;;19.50;99.10;;;;;;5076246;28;20486;-71
2021/07/13 05:13:37;;;;;;;16.85;15.15;;;19.50;99.10;;;;;;5076151;28;20024;-71
2021/07/13 05:16:03;;;;;;;18.67;16.85;;;19.50;99.20;;;;;;5075384;28;20128;-71
2021/07/13 05:18:29;;;;;;;17.58;15.77;;;19.50;99.50;;;;;;5076518;28;20016;-71
2021/07/13 05:21:00;;;;;;;19.67;17.85;;;19.50;99.20;;;;;;5093300;28;20495;-71
2021/07/13 05:23:26;;;;;;;24.75;22.20;;;19.50;99.20;;;;;;5093417;28;20024;-71
2021/07/13 05:25:52;;;;;;;23.95;21.67;;;19.50;99.40;;;;;;5094683;28;20035;-71
2021/07/13 05:28:17;;;;;;;22.95;20.65;;;19.40;99.50;;;;;;5094559;28;20032;-71
2021/07/13 05:30:44;;;;;;;24.55;22.15;;;19.40;99.60;;;;;;5093117;28;20034;-71
2021/07/13 05:33:11;;;;;;;20.20;18.23;;;19.40;99.80;;;;;;5094583;28;20496;-71
2021/07/13 05:35:37;;;;;;;22.17;20.02;;;19.40;99.80;;;;;;5094497;28;20044;-71
2021/07/13 05:38:03;;;;;;;20.73;18.65;;;19.40;99.90;;;;;;5094386;28;20093;-71
2021/07/13 05:40:29;;;;;;;21.48;19.27;;;19.40;99.90;;;;;;5094329;28;20167;-71
2021/07/13 05:42:55;;;;;;;19.98;17.92;;;19.50;99.90;;;;;;5094445;28;20103;-71
2021/07/13 05:45:20;;;;;;;20.20;18.20;;;19.50;99.90;;;;;;5094100;28;20074;-71
2021/07/13 05:47:46;;;;;;;20.50;18.30;;;19.60;99.90;;;;;;5093259;28;20028;-71
2021/07/13 05:50:12;;;;;;;20.35;18.35;;;19.60;99.90;;;;;;5080766;28;20036;-71
2021/07/13 05:52:38;;;;;;;19.92;17.92;;;19.60;99.90;;;;;;5086314;28;20489;-71
2021/07/13 05:55:05;;;;;;;20.33;18.20;;;19.70;99.90;;;;;;5092775;28;20028;-71
2021/07/13 05:57:30;;;;;;;21.27;19.08;;;19.70;99.90;;;;;;5094182;28;20066;-71
2021/07/13 05:59:56;;;;;;;20.63;18.10;;;19.80;99.90;;;;;;5093744;28;20024;-71
2021/07/13 06:02:22;;;;;;;22.85;20.52;;;19.80;99.90;;;;;;5092737;28;20036;-71
2021/07/13 06:04:51;;;;;;;23.35;20.42;;;19.80;99.90;;;;;;5077580;28;20025;-71
2021/07/13 06:07:17;;;;;;;23.27;20.77;;;19.90;99.90;;;;;;5078402;28;20125;-71
2021/07/13 06:09:43;;;;;;;24.48;21.90;;;19.90;99.90;;;;;;5092137;28;20031;-71
2021/07/13 06:12:09;;;;;;;25.08;22.02;;;19.90;99.90;;;;;;5079656;28;20424;-71
2021/07/13 06:14:36;;;;;;;27.10;22.00;;;19.90;99.90;;;;;;5075918;28;20108;-71
2021/07/13 06:17:06;;;;;;;26.85;23.02;;;19.90;99.90;;;;;;5093055;28;20161;-71
2021/07/13 06:19:32;;;;;;;26.85;23.95;;;20.00;99.90;;;;;;5093422;28;20466;-71
2021/07/13 06:21:58;;;;;;;24.00;21.58;;;20.00;99.90;;;;;;5093577;28;20550;-71
2021/07/13 06:24:23;;;;;;;23.23;20.65;;;20.00;99.90;;;;;;5092318;28;20028;-71
2021/07/13 06:26:49;;;;;;;22.42;20.10;;;20.00;99.90;;;;;;5089463;28;20020;-71
2021/07/13 06:29:15;;;;;;;21.92;19.55;;;20.10;99.90;;;;;;5072674;28;20020;-71
2021/07/13 06:31:40;;;;;;;22.70;20.27;;;20.10;99.90;;;;;;5090981;28;20024;-71
2021/07/13 06:34:06;;;;;;;22.23;19.83;;;20.20;99.90;;;;;;5092997;28;20016;-72
2021/07/13 06:36:32;;;;;;;23.02;20.52;;;20.20;99.90;;;;;;5089532;28;20033;-71
2021/07/13 06:38:58;;;;;;;26.15;23.33;;;20.20;99.90;;;;;;5072696;28;20092;-71
2021/07/13 06:41:23;;;;;;;27.20;23.92;;;20.20;99.90;;;;;;5072720;28;20100;-71
2021/07/13 06:43:49;;;;;;;27.25;24.30;;;20.20;99.90;;;;;;5078101;28;20032;-71
2021/07/13 06:46:14;;;;;;;26.92;24.00;;;20.20;99.90;;;;;;5092751;28;20028;-71
2021/07/13 06:48:40;;;;;;;28.23;23.98;;;20.20;99.90;;;;;;5092747;28;20365;-71
2021/07/13 06:51:05;;;;;;;29.05;25.90;;;20.20;99.90;;;;;;5091322;28;20028;-71
2021/07/13 06:53:31;;;;;;;32.33;28.17;;;20.30;99.90;;;;;;5092477;28;20015;-71
2021/07/13 06:55:56;;;;;;;32.83;28.27;;;20.30;99.90;;;;;;5091759;28;20073;-71
2021/07/13 06:58:22;;;;;;;34.83;28.85;;;20.30;99.90;;;;;;5091328;28;20063;-71
2021/07/13 07:00:47;;;;;;;35.85;29.40;;;20.30;99.90;;;;;;5088420;28;20016;-71
2021/07/13 07:03:13;;;;;;;37.38;31.52;;;20.30;99.90;;;;;;5087058;28;20025;-72
2021/07/13 07:05:40;;;;;;;37.00;31.00;;;20.30;99.90;;;;;;5092675;28;20024;-71
2021/07/13 07:08:06;;;;;;;36.33;31.42;;;20.30;99.90;;;;;;5092663;28;20099;-71
2021/07/13 07:10:32;;;;;;;41.33;33.53;;;20.30;99.90;;;;;;5092757;28;20051;-71
2021/07/13 07:12:58;;;;;;;43.47;34.58;;;20.30;99.90;;;;;;5092316;28;20032;-71
2021/07/13 07:15:24;;;;;;;41.40;34.08;;;20.30;99.90;;;;;;5076659;28;20029;-71
2021/07/13 07:17:53;;;;;;;41.85;33.75;;;20.30;99.90;;;;;;5092296;28;20020;-71
2021/07/13 07:20:24;;;;;;;;;;;20.20;99.90;;;;;;5092257;28;20017;-71
2021/07/13 07:22:49;;;;;;;34.35;28.50;;;20.20;99.90;;;;;;5090747;28;19939;-71
2021/07/13 07:25:16;;;;;;;29.80;25.40;;;20.20;99.90;;;;;;5092494;28;20059;-71
2021/07/13 07:27:42;;;;;;;32.67;27.85;;;20.30;99.90;;;;;;5090866;28;20119;-71
2021/07/13 07:30:10;;;;;;;32.88;26.67;;;20.30;99.90;;;;;;5092081;28;20436;-71
2021/07/13 07:32:37;;;;;;;28.42;23.55;;;20.30;99.90;;;;;;5091951;28;20420;-71
2021/07/13 07:35:04;;;;;;;27.80;23.48;;;20.40;99.90;;;;;;5092497;28;20107;-71
2021/07/13 07:37:30;;;;;;;29.00;22.92;;;20.40;99.90;;;;;;5092084;28;20044;-71
2021/07/13 07:39:56;;;;;;;24.60;21.42;;;20.40;99.90;;;;;;5091012;28;20020;-70
2021/07/13 07:42:22;;;;;;;28.10;22.75;;;20.50;99.90;;;;;;5092410;28;20024;-71
2021/07/13 07:44:47;;;;;;;28.92;24.08;;;20.50;99.90;;;;;;5091920;28;20070;-71
2021/07/13 07:47:13;;;;;;;26.50;22.83;;;20.50;99.90;;;;;;5092006;28;20039;-71
2021/07/13 07:49:38;;;;;;;26.48;21.40;;;20.50;99.90;;;;;;5089943;28;20031;-71
2021/07/13 07:52:04;;;;;;;24.70;21.85;;;20.50;99.90;;;;;;5091686;28;20028;-71
2021/07/13 07:54:30;;;;;;;23.13;20.30;;;20.50;99.90;;;;;;5091389;28;20024;-70
2021/07/13 07:56:56;;;;;;;24.20;21.08;;;20.50;99.90;;;;;;5091286;28;20132;-70
2021/07/13 07:59:22;;;;;;;23.90;20.58;;;20.50;99.90;;;;;;5090901;28;20107;-70
2021/07/13 08:01:48;;;;;;;23.02;18.50;;;20.50;99.90;;;;;;5091920;28;20024;-71
2021/07/13 08:04:13;;;;;;;21.23;18.27;;;20.60;99.90;;;;;;5092253;28;20020;-71
2021/07/13 08:06:39;;;;;;;21.02;18.58;;;20.60;99.90;;;;;;5090940;28;20374;-71
2021/07/13 08:09:07;;;;;;;24.15;19.52;;;20.60;99.90;;;;;;5092019;28;20151;-71
2021/07/13 08:11:36;;;;;;;23.30;20.02;;;20.60;99.90;;;;;;5090553;28;20081;-70
2021/07/13 08:14:04;;;;;;;;;;;20.60;99.90;;;;;;5091380;28;20093;-71
2021/07/13 08:16:37;;;;;;;14.48;12.93;;;20.60;99.90;;;;;;5092178;28;20387;-71
2021/07/13 08:19:04;;;;;;;18.50;15.38;;;20.50;99.90;;;;;;5090664;28;20119;-71
2021/07/13 08:21:29;;;;;;;18.55;16.10;;;20.60;99.90;;;;;;5091814;28;20023;-71
2021/07/13 08:23:55;;;;;;;19.48;17.40;;;20.60;99.90;;;;;;5092055;28;20031;-70
2021/07/13 08:26:20;;;;;;;17.80;15.88;;;20.60;99.90;;;;;;5090795;28;20056;-72
2021/07/13 08:28:46;;;;;;;20.00;16.65;;;20.60;99.90;;;;;;5092015;28;20024;-72
2021/07/13 08:31:11;;;;;;;19.83;17.13;;;20.70;99.90;;;;;;5092079;28;20036;-72
2021/07/13 08:33:37;;;;;;;16.75;14.95;;;20.70;99.90;;;;;;5090384;28;20501;-72
2021/07/13 08:36:03;;;;;;;19.83;16.90;;;20.70;99.90;;;;;;5091778;28;20061;-71
2021/07/13 08:38:28;;;;;;;18.55;16.13;;;20.70;99.90;;;;;;5091782;28;20051;-71
2021/07/13 08:40:54;;;;;;;18.65;16.65;;;20.70;99.90;;;;;;5092764;28;20027;-71
2021/07/13 08:43:23;;;;;;;21.33;18.85;;;20.70;99.90;;;;;;5095410;28;20358;-71
2021/07/13 08:45:52;;;;;;;22.50;18.50;;;20.70;99.90;;;;;;5095603;28;20016;-71
2021/07/13 08:48:22;;;;;;;21.98;18.52;;;20.70;99.90;;;;;;5093671;28;20250;-71
2021/07/13 08:50:48;;;;;;;19.02;16.98;;;20.80;99.90;;;;;;5081769;28;20511;-71
2021/07/13 08:53:13;;;;;;;19.35;16.30;;;20.90;99.90;;;;;;5093840;28;20016;-71
2021/07/13 08:55:39;;;;;;;20.15;17.63;;;20.90;99.90;;;;;;5094037;28;20028;-71
2021/07/13 08:58:04;;;;;;;20.33;17.88;;;20.90;99.90;;;;;;5095271;28;20024;-71
2021/07/13 09:00:30;;;;;;;19.17;16.40;;;20.90;99.90;;;;;;5095091;28;20016;-72
2021/07/13 09:03:06;;;;;;;19.50;16.33;;;20.90;99.90;;;;;;5093119;28;20089;-72
2021/07/13 09:05:48;;;;;;;18.20;15.55;;;21.00;99.90;;;;;;5095026;28;20073;-72
2021/07/13 09:08:23;;;;;;;18.85;15.48;;;21.00;99.90;;;;;;5093865;28;20070;-72
2021/07/13 09:11:01;;;;;;;16.00;13.55;;;21.10;99.90;;;;;;5094944;28;20038;-71
2021/07/13 09:13:30;;;;;;;15.57;13.48;;;21.10;99.90;;;;;;5094835;28;20024;-71
2021/07/13 09:16:00;;;;;;;15.32;13.35;;;21.20;99.90;;;;;;5074916;28;20031;-72
2021/07/13 09:18:34;;;;;;;15.05;13.18;;;21.30;99.90;;;;;;5083460;28;20012;-71
2021/07/13 09:21:26;;;;;;;16.48;13.75;;;21.40;99.90;;;;;;5094721;28;20129;-72
2021/07/13 09:24:05;;;;;;;17.23;14.95;;;21.50;99.90;;;;;;5094860;28;20020;-72
2021/07/13 09:26:57;;;;;;;18.27;15.60;;;21.60;99.90;;;;;;5094689;28;20016;-72
2021/07/13 09:29:44;;;;;;;17.23;15.30;;;21.60;99.80;;;;;;5094562;28;20051;-72
2021/07/13 09:32:18;;;;;;;20.05;16.65;;;21.60;99.80;;;;;;5093275;28;20024;-73
2021/07/13 09:34:54;;;;;;;18.55;15.70;;;21.60;99.90;;;;;;5092922;28;20013;-73
2021/07/13 09:37:26;;;;;;;17.92;14.93;;;21.70;99.90;;;;;;5094374;28;20048;-73
2021/07/13 09:40:05;;;;;;;17.65;15.10;;;21.80;99.90;;;;;;5094410;28;20061;-73
2021/07/13 09:42:32;;;;;;;20.33;18.13;;;21.80;99.80;;;;;;5094410;28;20107;-73
2021/07/13 09:45:18;;;;;;;21.30;18.27;;;21.80;99.80;;;;;;5094128;28;20024;-73
2021/07/13 09:47:44;;;;;;;18.15;16.17;;;21.90;99.70;;;;;;5091120;28;20415;-72
2021/07/13 09:50:11;;;;;;;18.83;16.48;;;21.90;99.70;;;;;;5088655;28;20028;-73
2021/07/13 09:52:37;;;;;;;18.95;16.92;;;22.00;99.70;;;;;;5089933;28;20035;-72
2021/07/13 09:55:14;;;;;;;18.15;15.82;;;22.00;99.60;;;;;;5092540;28;20016;-72
2021/07/13 09:57:40;;;;;;;17.55;15.25;;;22.00;99.50;;;;;;5093129;28;20028;-72
2021/07/13 10:00:06;;;;;;;15.45;13.85;;;22.00;99.50;;;;;;5093813;28;20028;-72
2021/07/13 10:02:32;;;;;;;15.70;14.05;;;22.00;99.50;;;;;;5093317;28;20390;-72
2021/07/13 10:05:00;;;;;;;17.10;15.27;;;22.10;99.40;;;;;;5092110;28;20032;-72
2021/07/13 10:07:27;;;;;;;19.52;16.90;;;22.10;99.40;;;;;;5093237;28;20067;-73
2021/07/13 10:09:55;;;;;;;15.57;13.98;;;22.10;99.40;;;;;;5093491;28;20032;-73
2021/07/13 10:12:23;;;;;;;18.80;16.67;;;22.10;99.30;;;;;;5093331;28;20028;-73
2021/07/13 10:14:54;;;;;;;16.02;14.07;;;22.20;99.20;;;;;;5092242;28;20058;-73
2021/07/13 10:17:19;;;;;;;15.32;13.60;;;22.20;99.20;;;;;;5091633;28;20016;-72
2021/07/13 10:19:55;;;;;;;16.70;14.88;;;22.20;99.10;;;;;;5092799;28;20115;-72
2021/07/13 10:22:23;;;;;;;18.27;15.80;;;22.20;99.00;;;;;;5090251;28;20024;-72
2021/07/13 10:24:51;;;;;;;15.25;13.65;;;22.30;99.00;;;;;;5091673;28;20028;-72
2021/07/13 10:27:28;;;;;;;16.67;14.85;;;22.30;99.00;;;;;;5092516;28;20485;-72
2021/07/13 10:29:55;;;;;;;15.20;13.60;;;22.30;98.90;;;;;;5091315;28;20067;-72
2021/07/13 10:32:24;;;;;;;17.90;15.48;;;22.30;99.00;;;;;;5092306;28;20381;-72
2021/07/13 10:34:54;;;;;;;16.47;14.77;;;22.30;98.90;;;;;;5092287;28;20413;-72
2021/07/13 10:37:38;;;;;;;17.00;15.20;;;22.40;98.80;;;;;;5091260;28;20047;-71
2021/07/13 10:40:12;;;;;;;16.83;15.10;;;22.40;98.70;;;;;;5093143;28;20024;-71
2021/07/13 10:42:40;;;;;;;16.75;14.80;;;22.40;98.70;;;;;;5070413;28;20059;-71
2021/07/13 10:45:42;;;;;;;17.50;15.25;;;22.40;98.60;;;;;;5087388;28;20028;-71
2021/07/13 10:48:13;;;;;;;18.15;15.70;;;22.40;98.50;;;;;;5070017;28;20061;-71
2021/07/13 10:50:40;;;;;;;19.08;16.98;;;22.40;98.60;;;;;;5073464;28;20025;-71
2021/07/13 10:53:07;;;;;;;16.75;15.00;;;22.50;98.50;;;;;;5088475;28;20024;-71
2021/07/13 10:55:35;;;;;;;15.07;13.48;;;22.50;98.50;;;;;;5079197;28;20048;-71
2021/07/13 10:58:10;;;;;;;17.33;15.50;;;22.60;98.50;;;;;;5086788;28;20379;-71
2021/07/13 11:00:47;;;;;;;18.35;16.40;;;22.50;98.30;;;;;;5090031;28;20241;-71
2021/07/13 11:03:30;;;;;;;21.80;18.83;;;22.50;98.30;;;;;;5082983;28;20059;-72
2021/07/13 11:06:00;;;;;;;20.65;17.98;;;22.50;98.30;;;;;;5073174;28;20083;-72
2021/07/13 11:08:40;;;;;;;22.50;20.08;;;22.50;98.40;;;;;;5069892;28;20024;-71
2021/07/13 11:11:18;;;;;;;24.98;21.67;;;22.50;98.20;;;;;;5071305;28;20103;-71
2021/07/13 11:13:52;;;;;;;18.55;16.27;;;22.50;98.30;;;;;;5075472;28;20037;-72
2021/07/13 11:16:27;;;;;;;19.63;17.52;;;22.60;98.30;;;;;;5073712;28;20069;-71
2021/07/13 11:18:53;;;;;;;17.13;15.10;;;22.80;98.10;;;;;;5075315;28;20031;-71
2021/07/13 11:21:21;;;;;;;20.17;17.70;;;22.80;98.00;;;;;;5078315;28;20028;-71
2021/07/13 11:23:49;;;;;;;15.38;13.77;;;22.90;97.80;;;;;;5080641;28;20028;-72
2021/07/13 11:26:17;;;;;;;15.18;13.57;;;22.90;97.80;;;;;;5076284;28;20028;-72
2021/07/13 11:28:59;;;;;;;14.23;12.65;;;22.90;97.70;;;;;;5073447;28;20052;-71
2021/07/13 11:31:34;;;;;;;15.07;13.48;;;23.00;97.60;;;;;;5072590;28;20081;-71
2021/07/13 11:34:08;;;;;;;13.48;12.07;;;23.00;97.50;;;;;;5071981;28;20481;-72
2021/07/13 11:36:35;;;;;;;12.88;11.57;;;22.90;97.40;;;;;;5085087;28;20052;-71
2021/07/13 11:39:05;;;;;;;12.73;11.40;;;22.90;97.40;;;;;;5073773;28;20020;-72
2021/07/13 11:41:30;;;;;;;12.63;11.32;;;22.90;97.30;;;;;;5072217;28;20378;-71
2021/07/13 11:44:05;;;;;;;15.23;13.65;;;22.90;97.30;;;;;;5085188;28;20551;-71
2021/07/13 11:46:33;;;;;;;12.80;11.63;;;22.80;97.00;;;;;;5075766;28;20524;-71
2021/07/13 11:49:33;;;;;;;13.63;12.25;;;22.70;97.20;;;;;;5088970;28;20024;-71
2021/07/13 11:52:00;;;;;;;11.98;10.43;;;22.80;97.10;;;;;;5064053;28;20048;-72
2021/07/13 11:54:28;;;;;;;12.52;11.02;;;22.80;97.20;;;;;;5070716;28;20360;-72
2021/07/13 11:57:00;;;;;;;12.02;10.77;;;22.90;97.10;;;;;;5083925;28;20570;-72
2021/07/13 11:59:29;;;;;;;13.32;11.93;;;23.00;97.30;;;;;;5080147;28;20017;-72
2021/07/13 12:02:00;;;;;;;14.70;13.13;;;23.00;97.00;;;;;;5078055;28;20056;-72
2021/07/13 12:04:27;;;;;;;14.20;12.73;;;23.10;96.90;;;;;;5083257;28;20045;-71
2021/07/13 12:07:03;;;;;;;13.85;12.25;;;23.10;96.90;;;;;;5073639;28;20461;-71
2021/07/13 12:09:31;;;;;;;16.00;13.20;;;23.20;96.90;;;;;;5078926;28;20040;-71
2021/07/13 12:12:08;;;;;;;14.00;11.38;;;23.20;96.80;;;;;;5077438;28;20028;-71
2021/07/13 12:14:35;;;;;;;15.48;13.30;;;23.30;96.70;;;;;;5080400;28;20370;-72
2021/07/13 12:17:02;;;;;;;15.98;13.90;;;23.30;96.60;;;;;;5075592;28;20059;-72
2021/07/13 12:19:30;;;;;;;10.95;9.85;;;23.40;96.50;;;;;;5083119;28;20028;-73
2021/07/13 12:21:58;;;;;;;12.95;11.50;;;23.50;96.50;;;;;;5079525;28;20028;-72
2021/07/13 12:24:35;;;;;;;13.75;12.25;;;23.50;96.50;;;;;;5079323;28;20028;-72
2021/07/13 12:27:07;;;;;;;15.02;13.32;;;23.70;96.30;;;;;;5087820;28;20020;-73
2021/07/13 12:29:36;;;;;;;15.65;13.85;;;23.70;96.20;;;;;;5082652;28;20031;-72
2021/07/13 12:32:04;;;;;;;17.08;14.15;;;23.80;96.00;;;;;;5077269;28;20059;-72
2021/07/13 12:34:32;;;;;;;14.75;13.15;;;23.90;95.80;;;;;;5079467;28;20381;-72
2021/07/13 12:37:15;;;;;;;18.77;15.30;;;24.00;95.70;;;;;;5079810;28;20063;-72